Chicago Ridge, Illinois
Current Conditions -  °F | °C
As of 2:53 AM on Thursday 18 Dec 2014 (Local Time) from KMDW Reporting Station
Overcast Overcast  
Wind Chill: 26°   Ceiling: 2200
Heat Index: 26°   Visibility: 10mi
Dew Point: 16°   Wind: 0mph
Humidity: 66%   Direction: NA
Pressure: 30.28"   Gusts: NA
Location:  41.7°N, 87.78°W
Report Text: KMDW 180853Z 00000KT 10SM OVC022 M03/M09 A3028 RMK AO2 SLP270 T10331089 56005
Loading
Personal Weather Stations






























Interactive Weather Map New forecast layout! Learn more

10-Day Weather Forecast

Advertisements
Track Severe Weather on mobile